sensor_id;sensor_type;location;lat;lon;timestamp;P1;durP1;ratioP1;P2;durP2;ratioP2
34765;SDS011;20984;43.508;1.504;2023-06-19T00:01:18;20.80;;;10.02;;
34765;SDS011;20984;43.508;1.504;2023-06-19T00:03:44;14.35;;;9.13;;
34765;SDS011;20984;43.508;1.504;2023-06-19T00:06:10;12.60;;;8.38;;
34765;SDS011;20984;43.508;1.504;2023-06-19T00:08:37;15.90;;;9.00;;
34765;SDS011;20984;43.508;1.504;2023-06-19T00:11:06;14.38;;;9.60;;
34765;SDS011;20984;43.508;1.504;2023-06-19T00:13:32;13.90;;;8.90;;
34765;SDS011;20984;43.508;1.504;2023-06-19T00:15:58;13.60;;;9.23;;
34765;SDS011;20984;43.508;1.504;2023-06-19T00:18:25;11.00;;;9.23;;
34765;SDS011;20984;43.508;1.504;2023-06-19T00:20:51;13.88;;;9.32;;
34765;SDS011;20984;43.508;1.504;2023-06-19T00:23:19;16.30;;;9.38;;
34765;SDS011;20984;43.508;1.504;2023-06-19T00:25:45;12.75;;;9.18;;
34765;SDS011;20984;43.508;1.504;2023-06-19T00:28:10;14.23;;;10.57;;
34765;SDS011;20984;43.508;1.504;2023-06-19T00:30:39;15.27;;;10.20;;
34765;SDS011;20984;43.508;1.504;2023-06-19T00:33:05;13.93;;;9.82;;
34765;SDS011;20984;43.508;1.504;2023-06-19T00:35:30;13.48;;;10.40;;
34765;SDS011;20984;43.508;1.504;2023-06-19T00:37:56;19.35;;;11.10;;
34765;SDS011;20984;43.508;1.504;2023-06-19T00:40:32;20.95;;;9.63;;
34765;SDS011;20984;43.508;1.504;2023-06-19T00:42:59;15.73;;;11.05;;
34765;SDS011;20984;43.508;1.504;2023-06-19T00:45:25;16.65;;;9.15;;
34765;SDS011;20984;43.508;1.504;2023-06-19T00:47:52;14.40;;;8.93;;
34765;SDS011;20984;43.508;1.504;2023-06-19T00:50:19;15.85;;;10.23;;
34765;SDS011;20984;43.508;1.504;2023-06-19T00:52:48;14.48;;;9.63;;
34765;SDS011;20984;43.508;1.504;2023-06-19T00:55:14;12.35;;;9.52;;
34765;SDS011;20984;43.508;1.504;2023-06-19T00:57:41;18.25;;;9.00;;
34765;SDS011;20984;43.508;1.504;2023-06-19T01:00:08;15.02;;;8.60;;
34765;SDS011;20984;43.508;1.504;2023-06-19T01:02:36;16.00;;;9.13;;
34765;SDS011;20984;43.508;1.504;2023-06-19T01:05:03;15.63;;;9.10;;
34765;SDS011;20984;43.508;1.504;2023-06-19T01:08:16;18.30;;;9.10;;
34765;SDS011;20984;43.508;1.504;2023-06-19T01:13:44;12.80;;;8.60;;
34765;SDS011;20984;43.508;1.504;2023-06-19T01:16:12;14.88;;;9.48;;
34765;SDS011;20984;43.508;1.504;2023-06-19T01:18:39;15.88;;;9.50;;
34765;SDS011;20984;43.508;1.504;2023-06-19T01:21:09;15.75;;;9.65;;
34765;SDS011;20984;43.508;1.504;2023-06-19T01:23:38;14.63;;;9.75;;
34765;SDS011;20984;43.508;1.504;2023-06-19T01:26:05;18.40;;;10.43;;
34765;SDS011;20984;43.508;1.504;2023-06-19T01:28:32;17.13;;;9.80;;
34765;SDS011;20984;43.508;1.504;2023-06-19T01:30:59;17.70;;;10.40;;
34765;SDS011;20984;43.508;1.504;2023-06-19T01:33:27;16.83;;;9.20;;
34765;SDS011;20984;43.508;1.504;2023-06-19T01:35:55;17.25;;;9.70;;
34765;SDS011;20984;43.508;1.504;2023-06-19T01:38:22;13.45;;;10.35;;
34765;SDS011;20984;43.508;1.504;2023-06-19T01:40:54;15.52;;;9.70;;
34765;SDS011;20984;43.508;1.504;2023-06-19T01:43:21;13.15;;;8.65;;
34765;SDS011;20984;43.508;1.504;2023-06-19T01:45:48;16.45;;;9.60;;
34765;SDS011;20984;43.508;1.504;2023-06-19T01:48:14;16.52;;;9.48;;
34765;SDS011;20984;43.508;1.504;2023-06-19T01:50:40;16.05;;;9.15;;
34765;SDS011;20984;43.508;1.504;2023-06-19T01:53:10;14.35;;;8.45;;
34765;SDS011;20984;43.508;1.504;2023-06-19T01:55:35;12.77;;;9.27;;
34765;SDS011;20984;43.508;1.504;2023-06-19T01:58:02;14.70;;;8.00;;
34765;SDS011;20984;43.508;1.504;2023-06-19T02:00:28;14.57;;;8.77;;
34765;SDS011;20984;43.508;1.504;2023-06-19T02:02:55;15.15;;;10.45;;
34765;SDS011;20984;43.508;1.504;2023-06-19T02:05:21;14.60;;;9.55;;
34765;SDS011;20984;43.508;1.504;2023-06-19T02:07:46;12.82;;;8.23;;
34765;SDS011;20984;43.508;1.504;2023-06-19T02:10:12;14.73;;;9.15;;
34765;SDS011;20984;43.508;1.504;2023-06-19T02:12:39;19.10;;;8.43;;
34765;SDS011;20984;43.508;1.504;2023-06-19T02:15:05;21.30;;;10.13;;
34765;SDS011;20984;43.508;1.504;2023-06-19T02:17:31;14.68;;;8.35;;
34765;SDS011;20984;43.508;1.504;2023-06-19T02:19:56;17.45;;;9.50;;
34765;SDS011;20984;43.508;1.504;2023-06-19T02:22:23;16.52;;;9.75;;
34765;SDS011;20984;43.508;1.504;2023-06-19T02:24:48;11.30;;;8.57;;
34765;SDS011;20984;43.508;1.504;2023-06-19T02:27:14;12.02;;;9.60;;
34765;SDS011;20984;43.508;1.504;2023-06-19T02:29:41;13.32;;;8.68;;
34765;SDS011;20984;43.508;1.504;2023-06-19T02:32:07;17.45;;;10.57;;
34765;SDS011;20984;43.508;1.504;2023-06-19T02:34:33;15.07;;;9.30;;
34765;SDS011;20984;43.508;1.504;2023-06-19T02:36:58;14.35;;;9.65;;
34765;SDS011;20984;43.508;1.504;2023-06-19T02:39:24;17.85;;;9.20;;
34765;SDS011;20984;43.508;1.504;2023-06-19T02:41:50;20.05;;;9.77;;
34765;SDS011;20984;43.508;1.504;2023-06-19T02:44:15;15.32;;;9.57;;
34765;SDS011;20984;43.508;1.504;2023-06-19T02:46:41;19.08;;;9.75;;
34765;SDS011;20984;43.508;1.504;2023-06-19T02:49:07;14.38;;;10.73;;
34765;SDS011;20984;43.508;1.504;2023-06-19T02:51:32;16.75;;;9.63;;
34765;SDS011;20984;43.508;1.504;2023-06-19T02:53:58;11.27;;;9.25;;
34765;SDS011;20984;43.508;1.504;2023-06-19T02:56:24;13.73;;;9.70;;
34765;SDS011;20984;43.508;1.504;2023-06-19T02:58:51;14.30;;;9.63;;
34765;SDS011;20984;43.508;1.504;2023-06-19T03:01:17;14.05;;;9.57;;
34765;SDS011;20984;43.508;1.504;2023-06-19T03:03:42;19.08;;;11.18;;
34765;SDS011;20984;43.508;1.504;2023-06-19T03:06:11;13.82;;;10.00;;
34765;SDS011;20984;43.508;1.504;2023-06-19T03:08:38;12.60;;;9.93;;
34765;SDS011;20984;43.508;1.504;2023-06-19T03:11:04;11.75;;;8.75;;
34765;SDS011;20984;43.508;1.504;2023-06-19T03:13:48;17.38;;;9.52;;
34765;SDS011;20984;43.508;1.504;2023-06-19T03:16:17;14.38;;;9.85;;
34765;SDS011;20984;43.508;1.504;2023-06-19T03:18:44;14.45;;;9.98;;
34765;SDS011;20984;43.508;1.504;2023-06-19T03:21:13;14.80;;;10.57;;
34765;SDS011;20984;43.508;1.504;2023-06-19T03:23:39;13.32;;;9.88;;
34765;SDS011;20984;43.508;1.504;2023-06-19T03:26:08;15.18;;;9.45;;
34765;SDS011;20984;43.508;1.504;2023-06-19T03:28:35;15.00;;;10.73;;
34765;SDS011;20984;43.508;1.504;2023-06-19T03:31:01;12.60;;;10.15;;
34765;SDS011;20984;43.508;1.504;2023-06-19T03:33:27;12.55;;;10.25;;
34765;SDS011;20984;43.508;1.504;2023-06-19T03:35:52;19.45;;;11.63;;
34765;SDS011;20984;43.508;1.504;2023-06-19T03:38:18;17.05;;;11.35;;
34765;SDS011;20984;43.508;1.504;2023-06-19T03:40:44;12.45;;;11.00;;
34765;SDS011;20984;43.508;1.504;2023-06-19T03:43:10;14.82;;;10.75;;
34765;SDS011;20984;43.508;1.504;2023-06-19T03:45:36;15.18;;;11.55;;
34765;SDS011;20984;43.508;1.504;2023-06-19T03:48:02;18.33;;;11.25;;
34765;SDS011;20984;43.508;1.504;2023-06-19T03:50:27;14.32;;;11.68;;
34765;SDS011;20984;43.508;1.504;2023-06-19T03:52:53;23.95;;;11.52;;
34765;SDS011;20984;43.508;1.504;2023-06-19T03:55:19;14.50;;;10.77;;
34765;SDS011;20984;43.508;1.504;2023-06-19T03:57:44;18.10;;;11.75;;
34765;SDS011;20984;43.508;1.504;2023-06-19T04:00:10;15.27;;;12.07;;
34765;SDS011;20984;43.508;1.504;2023-06-19T04:02:38;15.88;;;11.43;;
34765;SDS011;20984;43.508;1.504;2023-06-19T04:05:04;16.33;;;11.18;;
34765;SDS011;20984;43.508;1.504;2023-06-19T04:07:31;23.15;;;11.23;;
34765;SDS011;20984;43.508;1.504;2023-06-19T04:09:57;20.90;;;14.43;;
34765;SDS011;20984;43.508;1.504;2023-06-19T04:12:23;19.60;;;15.32;;
34765;SDS011;20984;43.508;1.504;2023-06-19T04:14:49;15.40;;;10.98;;
34765;SDS011;20984;43.508;1.504;2023-06-19T04:17:14;22.55;;;12.75;;
34765;SDS011;20984;43.508;1.504;2023-06-19T04:19:40;15.23;;;10.23;;
34765;SDS011;20984;43.508;1.504;2023-06-19T04:22:06;16.75;;;11.80;;
34765;SDS011;20984;43.508;1.504;2023-06-19T04:24:32;21.23;;;11.82;;
34765;SDS011;20984;43.508;1.504;2023-06-19T04:26:58;16.05;;;11.05;;
34765;SDS011;20984;43.508;1.504;2023-06-19T04:29:23;21.35;;;11.95;;
34765;SDS011;20984;43.508;1.504;2023-06-19T04:31:49;22.92;;;12.13;;
34765;SDS011;20984;43.508;1.504;2023-06-19T04:34:15;19.77;;;11.50;;
34765;SDS011;20984;43.508;1.504;2023-06-19T04:36:42;16.98;;;10.98;;
34765;SDS011;20984;43.508;1.504;2023-06-19T04:39:08;14.98;;;11.63;;
34765;SDS011;20984;43.508;1.504;2023-06-19T04:41:34;19.02;;;12.02;;
34765;SDS011;20984;43.508;1.504;2023-06-19T04:44:06;15.05;;;11.80;;
34765;SDS011;20984;43.508;1.504;2023-06-19T04:46:32;16.80;;;11.43;;
34765;SDS011;20984;43.508;1.504;2023-06-19T04:48:58;16.45;;;10.50;;
34765;SDS011;20984;43.508;1.504;2023-06-19T04:51:24;13.00;;;11.23;;
34765;SDS011;20984;43.508;1.504;2023-06-19T04:53:51;23.20;;;12.13;;
34765;SDS011;20984;43.508;1.504;2023-06-19T04:56:17;15.35;;;11.60;;
34765;SDS011;20984;43.508;1.504;2023-06-19T04:58:42;16.48;;;10.93;;
34765;SDS011;20984;43.508;1.504;2023-06-19T05:01:12;16.65;;;11.10;;
34765;SDS011;20984;43.508;1.504;2023-06-19T05:03:39;16.67;;;10.45;;
34765;SDS011;20984;43.508;1.504;2023-06-19T05:06:05;16.08;;;10.02;;
34765;SDS011;20984;43.508;1.504;2023-06-19T05:08:31;15.23;;;9.68;;
34765;SDS011;20984;43.508;1.504;2023-06-19T05:10:57;11.25;;;10.05;;
34765;SDS011;20984;43.508;1.504;2023-06-19T05:13:23;12.13;;;9.35;;
34765;SDS011;20984;43.508;1.504;2023-06-19T05:15:49;12.90;;;9.30;;
34765;SDS011;20984;43.508;1.504;2023-06-19T05:18:18;17.70;;;10.43;;
34765;SDS011;20984;43.508;1.504;2023-06-19T05:20:44;14.10;;;9.63;;
34765;SDS011;20984;43.508;1.504;2023-06-19T05:23:10;14.32;;;9.45;;
34765;SDS011;20984;43.508;1.504;2023-06-19T05:25:35;11.02;;;8.95;;
34765;SDS011;20984;43.508;1.504;2023-06-19T05:28:01;18.42;;;10.25;;
34765;SDS011;20984;43.508;1.504;2023-06-19T05:30:27;11.50;;;9.82;;
34765;SDS011;20984;43.508;1.504;2023-06-19T05:32:52;13.18;;;9.95;;
34765;SDS011;20984;43.508;1.504;2023-06-19T05:35:18;13.05;;;9.30;;
34765;SDS011;20984;43.508;1.504;2023-06-19T05:37:44;13.25;;;9.88;;
34765;SDS011;20984;43.508;1.504;2023-06-19T05:40:10;11.82;;;9.63;;
34765;SDS011;20984;43.508;1.504;2023-06-19T05:42:36;13.77;;;9.60;;
34765;SDS011;20984;43.508;1.504;2023-06-19T05:45:05;12.20;;;10.20;;
34765;SDS011;20984;43.508;1.504;2023-06-19T05:47:31;15.02;;;8.43;;
34765;SDS011;20984;43.508;1.504;2023-06-19T05:49:57;15.13;;;8.48;;
34765;SDS011;20984;43.508;1.504;2023-06-19T05:52:23;12.73;;;8.90;;
34765;SDS011;20984;43.508;1.504;2023-06-19T05:54:48;14.00;;;9.60;;
34765;SDS011;20984;43.508;1.504;2023-06-19T05:57:14;13.10;;;8.32;;
34765;SDS011;20984;43.508;1.504;2023-06-19T05:59:41;17.75;;;10.80;;
34765;SDS011;20984;43.508;1.504;2023-06-19T06:02:07;10.45;;;8.07;;
34765;SDS011;20984;43.508;1.504;2023-06-19T06:04:33;12.18;;;8.15;;
34765;SDS011;20984;43.508;1.504;2023-06-19T06:06:59;11.02;;;8.73;;
34765;SDS011;20984;43.508;1.504;2023-06-19T06:09:25;11.43;;;7.97;;
34765;SDS011;20984;43.508;1.504;2023-06-19T06:11:52;11.15;;;8.43;;
34765;SDS011;20984;43.508;1.504;2023-06-19T06:14:17;11.18;;;8.35;;
34765;SDS011;20984;43.508;1.504;2023-06-19T06:16:43;12.55;;;8.25;;
34765;SDS011;20984;43.508;1.504;2023-06-19T06:19:09;12.48;;;8.52;;
34765;SDS011;20984;43.508;1.504;2023-06-19T06:21:35;11.73;;;8.50;;
34765;SDS011;20984;43.508;1.504;2023-06-19T06:24:01;11.20;;;8.38;;
34765;SDS011;20984;43.508;1.504;2023-06-19T06:26:27;13.13;;;8.35;;
34765;SDS011;20984;43.508;1.504;2023-06-19T06:28:53;10.07;;;8.63;;
34765;SDS011;20984;43.508;1.504;2023-06-19T06:31:19;11.00;;;8.23;;
34765;SDS011;20984;43.508;1.504;2023-06-19T06:33:44;15.40;;;9.07;;
34765;SDS011;20984;43.508;1.504;2023-06-19T06:36:10;13.95;;;9.38;;
34765;SDS011;20984;43.508;1.504;2023-06-19T06:38:36;11.75;;;9.00;;
34765;SDS011;20984;43.508;1.504;2023-06-19T06:41:02;11.50;;;8.70;;
34765;SDS011;20984;43.508;1.504;2023-06-19T06:43:28;11.57;;;8.25;;
34765;SDS011;20984;43.508;1.504;2023-06-19T06:45:54;11.23;;;8.63;;
34765;SDS011;20984;43.508;1.504;2023-06-19T06:48:20;16.95;;;9.85;;
34765;SDS011;20984;43.508;1.504;2023-06-19T06:50:45;13.88;;;8.57;;
34765;SDS011;20984;43.508;1.504;2023-06-19T06:53:11;14.20;;;9.20;;
34765;SDS011;20984;43.508;1.504;2023-06-19T06:55:37;13.18;;;9.35;;
34765;SDS011;20984;43.508;1.504;2023-06-19T06:58:02;13.65;;;9.82;;
34765;SDS011;20984;43.508;1.504;2023-06-19T07:00:28;12.48;;;8.77;;
34765;SDS011;20984;43.508;1.504;2023-06-19T07:02:54;12.18;;;8.70;;
34765;SDS011;20984;43.508;1.504;2023-06-19T07:05:19;16.70;;;8.80;;
34765;SDS011;20984;43.508;1.504;2023-06-19T07:07:45;9.52;;;8.50;;
34765;SDS011;20984;43.508;1.504;2023-06-19T07:10:11;11.77;;;8.57;;
34765;SDS011;20984;43.508;1.504;2023-06-19T07:12:47;11.45;;;9.00;;
34765;SDS011;20984;43.508;1.504;2023-06-19T07:15:13;11.32;;;8.77;;
34765;SDS011;20984;43.508;1.504;2023-06-19T07:17:39;13.75;;;8.65;;
34765;SDS011;20984;43.508;1.504;2023-06-19T07:20:05;12.38;;;8.90;;
34765;SDS011;20984;43.508;1.504;2023-06-19T07:22:31;11.45;;;9.00;;
34765;SDS011;20984;43.508;1.504;2023-06-19T07:24:57;11.90;;;9.05;;
34765;SDS011;20984;43.508;1.504;2023-06-19T07:27:23;11.65;;;9.23;;
34765;SDS011;20984;43.508;1.504;2023-06-19T07:29:52;18.65;;;10.18;;
34765;SDS011;20984;43.508;1.504;2023-06-19T07:32:18;13.45;;;9.05;;
34765;SDS011;20984;43.508;1.504;2023-06-19T07:34:44;12.98;;;10.35;;
34765;SDS011;20984;43.508;1.504;2023-06-19T07:37:10;15.82;;;10.13;;
34765;SDS011;20984;43.508;1.504;2023-06-19T07:39:42;14.38;;;9.80;;
34765;SDS011;20984;43.508;1.504;2023-06-19T07:42:14;14.30;;;10.20;;
34765;SDS011;20984;43.508;1.504;2023-06-19T07:44:41;13.80;;;10.13;;
34765;SDS011;20984;43.508;1.504;2023-06-19T07:47:07;13.60;;;9.75;;
34765;SDS011;20984;43.508;1.504;2023-06-19T07:49:34;15.00;;;10.05;;
34765;SDS011;20984;43.508;1.504;2023-06-19T07:52:00;12.73;;;10.32;;
34765;SDS011;20984;43.508;1.504;2023-06-19T07:54:25;11.15;;;8.80;;
34765;SDS011;20984;43.508;1.504;2023-06-19T07:56:51;15.68;;;9.45;;
34765;SDS011;20984;43.508;1.504;2023-06-19T07:59:17;12.65;;;9.85;;
34765;SDS011;20984;43.508;1.504;2023-06-19T08:01:43;12.57;;;10.18;;
34765;SDS011;20984;43.508;1.504;2023-06-19T08:04:09;12.32;;;10.15;;
34765;SDS011;20984;43.508;1.504;2023-06-19T08:06:35;15.70;;;10.13;;
34765;SDS011;20984;43.508;1.504;2023-06-19T08:09:01;11.23;;;9.05;;
34765;SDS011;20984;43.508;1.504;2023-06-19T08:11:27;16.10;;;10.27;;
34765;SDS011;20984;43.508;1.504;2023-06-19T08:13:52;14.00;;;9.27;;
34765;SDS011;20984;43.508;1.504;2023-06-19T08:16:18;12.02;;;8.50;;
34765;SDS011;20984;43.508;1.504;2023-06-19T08:18:44;13.88;;;9.25;;
34765;SDS011;20984;43.508;1.504;2023-06-19T08:21:10;13.18;;;9.57;;
34765;SDS011;20984;43.508;1.504;2023-06-19T08:23:36;11.98;;;8.98;;
34765;SDS011;20984;43.508;1.504;2023-06-19T08:26:03;14.15;;;8.60;;
34765;SDS011;20984;43.508;1.504;2023-06-19T08:28:30;13.18;;;7.95;;
34765;SDS011;20984;43.508;1.504;2023-06-19T08:30:56;11.07;;;7.97;;
34765;SDS011;20984;43.508;1.504;2023-06-19T08:33:22;13.13;;;8.27;;
34765;SDS011;20984;43.508;1.504;2023-06-19T08:35:47;13.25;;;8.32;;
34765;SDS011;20984;43.508;1.504;2023-06-19T08:38:13;13.80;;;8.82;;
34765;SDS011;20984;43.508;1.504;2023-06-19T08:40:41;12.75;;;8.48;;
34765;SDS011;20984;43.508;1.504;2023-06-19T08:43:07;12.98;;;8.88;;
34765;SDS011;20984;43.508;1.504;2023-06-19T08:45:33;13.02;;;8.50;;
34765;SDS011;20984;43.508;1.504;2023-06-19T08:47:59;10.82;;;8.50;;
34765;SDS011;20984;43.508;1.504;2023-06-19T08:50:28;10.68;;;8.43;;
34765;SDS011;20984;43.508;1.504;2023-06-19T08:52:57;16.63;;;8.00;;
34765;SDS011;20984;43.508;1.504;2023-06-19T08:55:23;12.00;;;9.18;;
34765;SDS011;20984;43.508;1.504;2023-06-19T08:57:49;11.88;;;8.40;;
34765;SDS011;20984;43.508;1.504;2023-06-19T09:00:24;10.07;;;8.52;;
34765;SDS011;20984;43.508;1.504;2023-06-19T09:02:58;10.05;;;7.65;;
34765;SDS011;20984;43.508;1.504;2023-06-19T09:05:26;11.63;;;7.28;;
34765;SDS011;20984;43.508;1.504;2023-06-19T09:07:56;12.25;;;7.78;;
34765;SDS011;20984;43.508;1.504;2023-06-19T09:10:23;15.85;;;8.43;;
34765;SDS011;20984;43.508;1.504;2023-06-19T09:12:57;10.40;;;8.68;;
34765;SDS011;20984;43.508;1.504;2023-06-19T09:15:27;13.07;;;8.90;;
34765;SDS011;20984;43.508;1.504;2023-06-19T09:18:07;14.75;;;10.30;;
34765;SDS011;20984;43.508;1.504;2023-06-19T09:20:38;10.73;;;7.95;;
34765;SDS011;20984;43.508;1.504;2023-06-19T09:23:09;13.25;;;9.02;;
34765;SDS011;20984;43.508;1.504;2023-06-19T09:25:44;10.85;;;7.72;;
34765;SDS011;20984;43.508;1.504;2023-06-19T09:28:20;12.75;;;8.02;;
34765;SDS011;20984;43.508;1.504;2023-06-19T09:33:29;8.93;;;8.00;;
34765;SDS011;20984;43.508;1.504;2023-06-19T09:35:57;12.55;;;7.95;;
34765;SDS011;20984;43.508;1.504;2023-06-19T09:38:24;13.45;;;8.27;;
34765;SDS011;20984;43.508;1.504;2023-06-19T09:40:52;11.27;;;8.20;;
34765;SDS011;20984;43.508;1.504;2023-06-19T09:43:19;10.65;;;8.65;;
34765;SDS011;20984;43.508;1.504;2023-06-19T09:45:49;14.32;;;9.02;;
34765;SDS011;20984;43.508;1.504;2023-06-19T09:48:17;12.18;;;9.00;;
34765;SDS011;20984;43.508;1.504;2023-06-19T09:50:48;12.07;;;8.02;;
34765;SDS011;20984;43.508;1.504;2023-06-19T09:53:18;15.25;;;8.25;;
34765;SDS011;20984;43.508;1.504;2023-06-19T09:55:46;10.65;;;7.63;;
34765;SDS011;20984;43.508;1.504;2023-06-19T09:58:15;9.68;;;8.35;;
34765;SDS011;20984;43.508;1.504;2023-06-19T10:00:45;13.18;;;8.70;;
34765;SDS011;20984;43.508;1.504;2023-06-19T10:03:12;10.57;;;7.88;;
34765;SDS011;20984;43.508;1.504;2023-06-19T10:05:39;12.95;;;8.93;;
34765;SDS011;20984;43.508;1.504;2023-06-19T10:08:05;12.75;;;8.20;;
34765;SDS011;20984;43.508;1.504;2023-06-19T10:10:31;10.70;;;7.97;;
34765;SDS011;20984;43.508;1.504;2023-06-19T10:12:59;9.88;;;8.48;;
34765;SDS011;20984;43.508;1.504;2023-06-19T10:15:39;10.18;;;7.25;;
34765;SDS011;20984;43.508;1.504;2023-06-19T10:18:07;8.48;;;7.45;;
34765;SDS011;20984;43.508;1.504;2023-06-19T10:20:37;10.32;;;7.75;;
34765;SDS011;20984;43.508;1.504;2023-06-19T10:23:14;10.38;;;6.72;;
34765;SDS011;20984;43.508;1.504;2023-06-19T10:25:46;20.63;;;8.32;;
34765;SDS011;20984;43.508;1.504;2023-06-19T10:28:16;8.00;;;6.70;;
34765;SDS011;20984;43.508;1.504;2023-06-19T10:30:56;10.88;;;6.60;;
34765;SDS011;20984;43.508;1.504;2023-06-19T10:33:23;9.77;;;5.95;;
34765;SDS011;20984;43.508;1.504;2023-06-19T10:35:49;8.65;;;6.15;;
34765;SDS011;20984;43.508;1.504;2023-06-19T10:38:15;8.35;;;6.15;;
34765;SDS011;20984;43.508;1.504;2023-06-19T10:40:42;10.40;;;6.47;;
34765;SDS011;20984;43.508;1.504;2023-06-19T10:43:09;9.77;;;5.93;;
34765;SDS011;20984;43.508;1.504;2023-06-19T10:45:35;9.65;;;5.72;;
34765;SDS011;20984;43.508;1.504;2023-06-19T10:48:01;6.93;;;6.03;;
34765;SDS011;20984;43.508;1.504;2023-06-19T10:50:28;8.00;;;6.03;;
34765;SDS011;20984;43.508;1.504;2023-06-19T10:52:55;8.60;;;6.38;;
34765;SDS011;20984;43.508;1.504;2023-06-19T10:55:23;9.02;;;6.18;;
34765;SDS011;20984;43.508;1.504;2023-06-19T10:57:49;7.18;;;5.57;;
34765;SDS011;20984;43.508;1.504;2023-06-19T11:00:32;9.38;;;5.53;;
34765;SDS011;20984;43.508;1.504;2023-06-19T11:02:58;11.98;;;5.55;;
34765;SDS011;20984;43.508;1.504;2023-06-19T11:05:25;7.05;;;5.32;;
34765;SDS011;20984;43.508;1.504;2023-06-19T11:07:56;8.73;;;6.03;;
34765;SDS011;20984;43.508;1.504;2023-06-19T11:10:24;9.48;;;5.55;;
34765;SDS011;20984;43.508;1.504;2023-06-19T11:12:56;8.85;;;6.10;;
34765;SDS011;20984;43.508;1.504;2023-06-19T11:17:55;9.95;;;5.75;;
34765;SDS011;20984;43.508;1.504;2023-06-19T11:20:21;8.38;;;5.38;;
34765;SDS011;20984;43.508;1.504;2023-06-19T11:22:46;8.02;;;5.80;;
34765;SDS011;20984;43.508;1.504;2023-06-19T11:25:13;9.18;;;6.97;;
34765;SDS011;20984;43.508;1.504;2023-06-19T11:27:39;9.90;;;5.78;;
34765;SDS011;20984;43.508;1.504;2023-06-19T11:30:05;7.28;;;5.00;;
34765;SDS011;20984;43.508;1.504;2023-06-19T11:32:38;7.00;;;5.40;;
34765;SDS011;20984;43.508;1.504;2023-06-19T11:35:10;6.93;;;5.10;;
34765;SDS011;20984;43.508;1.504;2023-06-19T11:37:39;7.20;;;4.82;;
34765;SDS011;20984;43.508;1.504;2023-06-19T11:40:06;8.00;;;5.70;;
34765;SDS011;20984;43.508;1.504;2023-06-19T11:42:43;7.88;;;5.13;;
34765;SDS011;20984;43.508;1.504;2023-06-19T11:45:13;12.82;;;6.53;;
34765;SDS011;20984;43.508;1.504;2023-06-19T11:47:39;7.30;;;5.05;;
34765;SDS011;20984;43.508;1.504;2023-06-19T11:50:05;8.65;;;5.60;;
34765;SDS011;20984;43.508;1.504;2023-06-19T11:52:31;9.80;;;6.28;;
34765;SDS011;20984;43.508;1.504;2023-06-19T11:54:57;9.77;;;6.45;;
34765;SDS011;20984;43.508;1.504;2023-06-19T11:57:22;10.55;;;6.60;;
34765;SDS011;20984;43.508;1.504;2023-06-19T11:59:48;13.50;;;7.60;;
34765;SDS011;20984;43.508;1.504;2023-06-19T12:02:14;7.93;;;6.68;;
34765;SDS011;20984;43.508;1.504;2023-06-19T12:04:39;11.00;;;6.57;;
34765;SDS011;20984;43.508;1.504;2023-06-19T12:07:05;10.73;;;6.90;;
34765;SDS011;20984;43.508;1.504;2023-06-19T12:09:31;8.65;;;6.57;;
34765;SDS011;20984;43.508;1.504;2023-06-19T12:11:57;8.52;;;5.78;;
34765;SDS011;20984;43.508;1.504;2023-06-19T12:14:24;9.48;;;6.78;;
34765;SDS011;20984;43.508;1.504;2023-06-19T12:16:51;9.65;;;6.25;;
34765;SDS011;20984;43.508;1.504;2023-06-19T12:19:17;12.07;;;7.43;;
34765;SDS011;20984;43.508;1.504;2023-06-19T12:21:43;10.45;;;7.03;;
34765;SDS011;20984;43.508;1.504;2023-06-19T12:24:08;9.25;;;6.90;;
34765;SDS011;20984;43.508;1.504;2023-06-19T12:26:35;11.38;;;7.10;;
34765;SDS011;20984;43.508;1.504;2023-06-19T12:29:03;7.47;;;6.68;;
34765;SDS011;20984;43.508;1.504;2023-06-19T12:31:30;11.68;;;6.80;;
34765;SDS011;20984;43.508;1.504;2023-06-19T12:33:56;10.65;;;7.18;;
34765;SDS011;20984;43.508;1.504;2023-06-19T12:36:22;9.32;;;6.57;;
34765;SDS011;20984;43.508;1.504;2023-06-19T12:38:48;11.32;;;6.45;;
34765;SDS011;20984;43.508;1.504;2023-06-19T12:41:14;9.88;;;6.60;;
34765;SDS011;20984;43.508;1.504;2023-06-19T12:43:40;7.90;;;7.05;;
34765;SDS011;20984;43.508;1.504;2023-06-19T12:46:06;10.05;;;6.70;;
34765;SDS011;20984;43.508;1.504;2023-06-19T12:48:32;7.38;;;6.60;;
34765;SDS011;20984;43.508;1.504;2023-06-19T12:50:58;8.55;;;6.70;;
34765;SDS011;20984;43.508;1.504;2023-06-19T12:53:23;8.52;;;6.53;;
34765;SDS011;20984;43.508;1.504;2023-06-19T12:55:53;6.82;;;6.07;;
34765;SDS011;20984;43.508;1.504;2023-06-19T12:58:19;8.88;;;6.22;;
34765;SDS011;20984;43.508;1.504;2023-06-19T13:00:45;8.63;;;5.90;;
34765;SDS011;20984;43.508;1.504;2023-06-19T13:03:10;9.77;;;6.47;;
34765;SDS011;20984;43.508;1.504;2023-06-19T13:05:36;6.68;;;5.90;;
34765;SDS011;20984;43.508;1.504;2023-06-19T13:08:02;7.75;;;5.47;;
34765;SDS011;20984;43.508;1.504;2023-06-19T13:10:27;10.45;;;6.32;;
34765;SDS011;20984;43.508;1.504;2023-06-19T13:12:53;9.10;;;5.90;;
34765;SDS011;20984;43.508;1.504;2023-06-19T13:15:18;13.82;;;6.55;;
34765;SDS011;20984;43.508;1.504;2023-06-19T13:17:44;7.70;;;6.13;;
34765;SDS011;20984;43.508;1.504;2023-06-19T13:20:10;9.63;;;6.07;;
34765;SDS011;20984;43.508;1.504;2023-06-19T13:22:36;7.93;;;5.63;;
34765;SDS011;20984;43.508;1.504;2023-06-19T13:25:02;8.02;;;6.38;;
34765;SDS011;20984;43.508;1.504;2023-06-19T13:27:27;8.88;;;5.82;;
34765;SDS011;20984;43.508;1.504;2023-06-19T13:29:54;15.90;;;6.55;;
34765;SDS011;20984;43.508;1.504;2023-06-19T13:32:19;7.50;;;6.05;;
34765;SDS011;20984;43.508;1.504;2023-06-19T13:34:45;7.53;;;6.05;;
34765;SDS011;20984;43.508;1.504;2023-06-19T13:37:11;6.93;;;5.00;;
34765;SDS011;20984;43.508;1.504;2023-06-19T13:39:36;6.57;;;5.70;;
34765;SDS011;20984;43.508;1.504;2023-06-19T13:42:03;7.75;;;6.45;;
34765;SDS011;20984;43.508;1.504;2023-06-19T13:44:29;8.07;;;5.15;;
34765;SDS011;20984;43.508;1.504;2023-06-19T13:46:54;8.30;;;5.65;;
34765;SDS011;20984;43.508;1.504;2023-06-19T13:49:20;6.65;;;5.60;;
34765;SDS011;20984;43.508;1.504;2023-06-19T13:51:46;8.40;;;5.53;;
34765;SDS011;20984;43.508;1.504;2023-06-19T13:54:12;6.53;;;5.28;;
34765;SDS011;20984;43.508;1.504;2023-06-19T13:56:38;7.97;;;5.75;;
34765;SDS011;20984;43.508;1.504;2023-06-19T13:59:04;7.90;;;6.15;;
34765;SDS011;20984;43.508;1.504;2023-06-19T14:01:30;8.40;;;6.07;;
34765;SDS011;20984;43.508;1.504;2023-06-19T14:03:57;9.75;;;5.72;;
34765;SDS011;20984;43.508;1.504;2023-06-19T14:06:23;7.90;;;5.53;;
34765;SDS011;20984;43.508;1.504;2023-06-19T14:08:49;9.60;;;5.57;;
34765;SDS011;20984;43.508;1.504;2023-06-19T14:11:15;16.00;;;6.50;;
34765;SDS011;20984;43.508;1.504;2023-06-19T14:13:41;15.00;;;7.00;;
34765;SDS011;20984;43.508;1.504;2023-06-19T14:16:06;10.68;;;6.82;;
34765;SDS011;20984;43.508;1.504;2023-06-19T14:18:32;7.68;;;5.93;;
34765;SDS011;20984;43.508;1.504;2023-06-19T14:20:58;8.60;;;6.53;;
34765;SDS011;20984;43.508;1.504;2023-06-19T14:23:24;9.43;;;5.95;;
34765;SDS011;20984;43.508;1.504;2023-06-19T14:25:50;14.23;;;6.78;;
34765;SDS011;20984;43.508;1.504;2023-06-19T14:28:15;9.40;;;6.40;;
34765;SDS011;20984;43.508;1.504;2023-06-19T14:30:41;8.32;;;6.22;;
34765;SDS011;20984;43.508;1.504;2023-06-19T14:33:07;9.20;;;5.95;;
34765;SDS011;20984;43.508;1.504;2023-06-19T14:35:35;7.05;;;5.30;;
34765;SDS011;20984;43.508;1.504;2023-06-19T14:38:01;8.98;;;5.75;;
34765;SDS011;20984;43.508;1.504;2023-06-19T14:40:26;6.07;;;4.72;;
34765;SDS011;20984;43.508;1.504;2023-06-19T14:42:52;7.38;;;5.18;;